sensor_id;sensor_type;location;lat;lon;timestamp;P1;durP1;ratioP1;P2;durP2;ratioP2
50851;SDS011;43953;45.508;-122.806;2024-01-30T00:00:24;7.85;;;7.05;;
50851;SDS011;43953;45.508;-122.806;2024-01-30T00:00:56;10.35;;;6.60;;
50851;SDS011;43953;45.508;-122.806;2024-01-30T00:01:28;7.72;;;6.75;;
50851;SDS011;43953;45.508;-122.806;2024-01-30T00:02:00;7.95;;;7.13;;
50851;SDS011;43953;45.508;-122.806;2024-01-30T00:02:32;8.38;;;7.00;;
50851;SDS011;43953;45.508;-122.806;2024-01-30T00:03:03;7.88;;;6.57;;
50851;SDS011;43953;45.508;-122.806;2024-01-30T00:03:35;8.23;;;6.95;;
50851;SDS011;43953;45.508;-122.806;2024-01-30T00:04:07;7.45;;;6.65;;
50851;SDS011;43953;45.508;-122.806;2024-01-30T00:04:39;7.55;;;6.80;;
50851;SDS011;43953;45.508;-122.806;2024-01-30T00:05:10;7.63;;;6.88;;
50851;SDS011;43953;45.508;-122.806;2024-01-30T00:05:42;8.02;;;6.80;;
50851;SDS011;43953;45.508;-122.806;2024-01-30T00:06:14;7.82;;;6.78;;
50851;SDS011;43953;45.508;-122.806;2024-01-30T00:06:50;7.78;;;6.97;;
50851;SDS011;43953;45.508;-122.806;2024-01-30T00:07:23;7.18;;;6.47;;
50851;SDS011;43953;45.508;-122.806;2024-01-30T00:07:55;7.63;;;6.93;;
50851;SDS011;43953;45.508;-122.806;2024-01-30T00:08:27;8.43;;;7.50;;
50851;SDS011;43953;45.508;-122.806;2024-01-30T00:08:58;7.97;;;6.72;;
50851;SDS011;43953;45.508;-122.806;2024-01-30T00:09:30;7.20;;;6.50;;
50851;SDS011;43953;45.508;-122.806;2024-01-30T00:10:02;7.50;;;6.72;;
50851;SDS011;43953;45.508;-122.806;2024-01-30T00:10:34;6.53;;;5.75;;
50851;SDS011;43953;45.508;-122.806;2024-01-30T00:11:07;6.80;;;6.03;;
50851;SDS011;43953;45.508;-122.806;2024-01-30T00:11:39;7.03;;;6.28;;
50851;SDS011;43953;45.508;-122.806;2024-01-30T00:12:11;7.82;;;7.03;;
50851;SDS011;43953;45.508;-122.806;2024-01-30T00:12:42;7.15;;;6.43;;
50851;SDS011;43953;45.508;-122.806;2024-01-30T00:13:14;7.13;;;6.40;;
50851;SDS011;43953;45.508;-122.806;2024-01-30T00:13:48;6.68;;;6.05;;
50851;SDS011;43953;45.508;-122.806;2024-01-30T00:14:20;7.35;;;6.20;;
50851;SDS011;43953;45.508;-122.806;2024-01-30T00:14:52;7.13;;;6.43;;
50851;SDS011;43953;45.508;-122.806;2024-01-30T00:15:23;7.10;;;6.40;;
50851;SDS011;43953;45.508;-122.806;2024-01-30T00:15:55;6.93;;;6.28;;
50851;SDS011;43953;45.508;-122.806;2024-01-30T00:16:27;6.53;;;5.85;;
50851;SDS011;43953;45.508;-122.806;2024-01-30T00:16:59;7.30;;;6.00;;
50851;SDS011;43953;45.508;-122.806;2024-01-30T00:17:30;7.05;;;6.45;;
50851;SDS011;43953;45.508;-122.806;2024-01-30T00:18:02;7.93;;;6.32;;
50851;SDS011;43953;45.508;-122.806;2024-01-30T00:18:34;7.22;;;6.53;;
50851;SDS011;43953;45.508;-122.806;2024-01-30T00:19:06;7.35;;;6.07;;
50851;SDS011;43953;45.508;-122.806;2024-01-30T00:19:39;7.15;;;6.45;;
50851;SDS011;43953;45.508;-122.806;2024-01-30T00:20:10;6.43;;;5.82;;
50851;SDS011;43953;45.508;-122.806;2024-01-30T00:20:42;7.13;;;6.00;;
50851;SDS011;43953;45.508;-122.806;2024-01-30T00:21:14;6.70;;;6.10;;
50851;SDS011;43953;45.508;-122.806;2024-01-30T00:21:46;7.57;;;6.57;;
50851;SDS011;43953;45.508;-122.806;2024-01-30T00:22:18;8.07;;;6.07;;
50851;SDS011;43953;45.508;-122.806;2024-01-30T00:22:49;7.72;;;6.93;;
50851;SDS011;43953;45.508;-122.806;2024-01-30T00:23:21;7.45;;;6.30;;
50851;SDS011;43953;45.508;-122.806;2024-01-30T00:23:53;7.50;;;6.22;;
50851;SDS011;43953;45.508;-122.806;2024-01-30T00:24:25;7.72;;;6.93;;
50851;SDS011;43953;45.508;-122.806;2024-01-30T00:24:56;7.50;;;6.55;;
50851;SDS011;43953;45.508;-122.806;2024-01-30T00:25:28;6.68;;;6.00;;
50851;SDS011;43953;45.508;-122.806;2024-01-30T00:26:00;6.53;;;5.72;;
50851;SDS011;43953;45.508;-122.806;2024-01-30T00:26:31;6.57;;;5.95;;
50851;SDS011;43953;45.508;-122.806;2024-01-30T00:27:03;6.95;;;5.85;;
50851;SDS011;43953;45.508;-122.806;2024-01-30T00:27:35;7.18;;;6.20;;
50851;SDS011;43953;45.508;-122.806;2024-01-30T00:28:07;7.95;;;6.63;;
50851;SDS011;43953;45.508;-122.806;2024-01-30T00:28:38;6.47;;;5.88;;
50851;SDS011;43953;45.508;-122.806;2024-01-30T00:29:10;7.55;;;6.63;;
50851;SDS011;43953;45.508;-122.806;2024-01-30T00:29:42;6.40;;;5.78;;
50851;SDS011;43953;45.508;-122.806;2024-01-30T00:30:14;8.02;;;6.07;;
50851;SDS011;43953;45.508;-122.806;2024-01-30T00:30:46;7.28;;;5.88;;
50851;SDS011;43953;45.508;-122.806;2024-01-30T00:31:18;7.43;;;6.30;;
50851;SDS011;43953;45.508;-122.806;2024-01-30T00:31:49;6.28;;;5.68;;
50851;SDS011;43953;45.508;-122.806;2024-01-30T00:32:21;6.70;;;5.70;;
50851;SDS011;43953;45.508;-122.806;2024-01-30T00:32:54;6.32;;;5.72;;
50851;SDS011;43953;45.508;-122.806;2024-01-30T00:33:26;6.93;;;6.22;;
50851;SDS011;43953;45.508;-122.806;2024-01-30T00:33:57;8.68;;;6.40;;
50851;SDS011;43953;45.508;-122.806;2024-01-30T00:34:29;6.38;;;5.78;;
50851;SDS011;43953;45.508;-122.806;2024-01-30T00:35:01;7.05;;;6.10;;
50851;SDS011;43953;45.508;-122.806;2024-01-30T00:35:32;7.30;;;5.57;;
50851;SDS011;43953;45.508;-122.806;2024-01-30T00:36:05;6.82;;;6.10;;
50851;SDS011;43953;45.508;-122.806;2024-01-30T00:36:40;6.50;;;5.90;;
50851;SDS011;43953;45.508;-122.806;2024-01-30T00:37:11;6.53;;;5.78;;
50851;SDS011;43953;45.508;-122.806;2024-01-30T00:37:43;7.97;;;5.82;;
50851;SDS011;43953;45.508;-122.806;2024-01-30T00:38:15;6.38;;;5.78;;
50851;SDS011;43953;45.508;-122.806;2024-01-30T00:38:47;6.53;;;5.85;;
50851;SDS011;43953;45.508;-122.806;2024-01-30T00:39:18;8.35;;;6.30;;
50851;SDS011;43953;45.508;-122.806;2024-01-30T00:39:50;6.00;;;5.40;;
50851;SDS011;43953;45.508;-122.806;2024-01-30T00:40:22;6.85;;;5.97;;
50851;SDS011;43953;45.508;-122.806;2024-01-30T00:40:53;6.35;;;5.75;;
50851;SDS011;43953;45.508;-122.806;2024-01-30T00:41:25;6.18;;;5.32;;
50851;SDS011;43953;45.508;-122.806;2024-01-30T00:41:57;7.05;;;6.18;;
50851;SDS011;43953;45.508;-122.806;2024-01-30T00:42:29;6.57;;;5.93;;
50851;SDS011;43953;45.508;-122.806;2024-01-30T00:43:01;8.43;;;6.15;;
50851;SDS011;43953;45.508;-122.806;2024-01-30T00:43:32;6.28;;;5.68;;
50851;SDS011;43953;45.508;-122.806;2024-01-30T00:44:04;5.80;;;5.20;;
50851;SDS011;43953;45.508;-122.806;2024-01-30T00:44:36;7.38;;;6.13;;
50851;SDS011;43953;45.508;-122.806;2024-01-30T00:45:14;6.70;;;6.03;;
50851;SDS011;43953;45.508;-122.806;2024-01-30T00:45:46;8.43;;;5.95;;
50851;SDS011;43953;45.508;-122.806;2024-01-30T00:46:18;8.13;;;5.93;;
50851;SDS011;43953;45.508;-122.806;2024-01-30T00:46:50;6.43;;;5.60;;
50851;SDS011;43953;45.508;-122.806;2024-01-30T00:47:22;6.53;;;5.93;;
50851;SDS011;43953;45.508;-122.806;2024-01-30T00:47:53;6.80;;;5.93;;
50851;SDS011;43953;45.508;-122.806;2024-01-30T00:48:25;11.18;;;6.13;;
50851;SDS011;43953;45.508;-122.806;2024-01-30T00:48:57;17.67;;;7.10;;
50851;SDS011;43953;45.508;-122.806;2024-01-30T00:49:29;12.57;;;5.95;;
50851;SDS011;43953;45.508;-122.806;2024-01-30T00:50:00;14.90;;;6.85;;
50851;SDS011;43953;45.508;-122.806;2024-01-30T00:50:32;9.50;;;6.40;;
50851;SDS011;43953;45.508;-122.806;2024-01-30T00:51:04;10.52;;;6.50;;
50851;SDS011;43953;45.508;-122.806;2024-01-30T00:51:35;13.60;;;7.40;;
50851;SDS011;43953;45.508;-122.806;2024-01-30T00:52:07;11.98;;;6.60;;
50851;SDS011;43953;45.508;-122.806;2024-01-30T00:52:39;12.18;;;6.68;;
50851;SDS011;43953;45.508;-122.806;2024-01-30T00:53:12;13.30;;;6.22;;
50851;SDS011;43953;45.508;-122.806;2024-01-30T00:53:44;11.02;;;6.38;;
50851;SDS011;43953;45.508;-122.806;2024-01-30T00:54:16;10.43;;;5.82;;
50851;SDS011;43953;45.508;-122.806;2024-01-30T00:54:48;12.88;;;6.10;;
50851;SDS011;43953;45.508;-122.806;2024-01-30T00:55:20;12.63;;;6.05;;
50851;SDS011;43953;45.508;-122.806;2024-01-30T00:55:52;11.93;;;6.30;;
50851;SDS011;43953;45.508;-122.806;2024-01-30T00:56:24;13.40;;;6.80;;
50851;SDS011;43953;45.508;-122.806;2024-01-30T00:56:56;12.88;;;6.75;;
50851;SDS011;43953;45.508;-122.806;2024-01-30T00:57:27;13.48;;;6.35;;
50851;SDS011;43953;45.508;-122.806;2024-01-30T00:58:00;10.57;;;6.45;;
50851;SDS011;43953;45.508;-122.806;2024-01-30T00:58:31;12.18;;;6.70;;
50851;SDS011;43953;45.508;-122.806;2024-01-30T00:59:03;10.00;;;6.00;;
50851;SDS011;43953;45.508;-122.806;2024-01-30T00:59:35;9.18;;;5.65;;
50851;SDS011;43953;45.508;-122.806;2024-01-30T01:00:07;10.63;;;5.90;;
50851;SDS011;43953;45.508;-122.806;2024-01-30T01:00:40;10.27;;;5.93;;
50851;SDS011;43953;45.508;-122.806;2024-01-30T01:01:11;16.17;;;6.30;;
50851;SDS011;43953;45.508;-122.806;2024-01-30T01:01:43;12.60;;;5.80;;
50851;SDS011;43953;45.508;-122.806;2024-01-30T01:02:15;14.40;;;6.82;;
50851;SDS011;43953;45.508;-122.806;2024-01-30T01:02:48;11.77;;;6.38;;
50851;SDS011;43953;45.508;-122.806;2024-01-30T01:03:20;11.57;;;6.47;;
50851;SDS011;43953;45.508;-122.806;2024-01-30T01:03:52;9.80;;;5.63;;
50851;SDS011;43953;45.508;-122.806;2024-01-30T01:04:23;16.20;;;6.63;;
50851;SDS011;43953;45.508;-122.806;2024-01-30T01:04:55;18.40;;;8.05;;
50851;SDS011;43953;45.508;-122.806;2024-01-30T01:05:27;21.15;;;7.00;;
50851;SDS011;43953;45.508;-122.806;2024-01-30T01:05:59;14.35;;;6.78;;
50851;SDS011;43953;45.508;-122.806;2024-01-30T01:06:30;12.10;;;6.75;;
50851;SDS011;43953;45.508;-122.806;2024-01-30T01:07:02;17.05;;;6.82;;
50851;SDS011;43953;45.508;-122.806;2024-01-30T01:07:34;15.23;;;6.70;;
50851;SDS011;43953;45.508;-122.806;2024-01-30T01:08:06;13.57;;;6.10;;
50851;SDS011;43953;45.508;-122.806;2024-01-30T01:08:37;11.73;;;6.40;;
50851;SDS011;43953;45.508;-122.806;2024-01-30T01:09:12;11.25;;;6.50;;
50851;SDS011;43953;45.508;-122.806;2024-01-30T01:09:44;13.70;;;6.63;;
50851;SDS011;43953;45.508;-122.806;2024-01-30T01:10:16;15.45;;;7.00;;
50851;SDS011;43953;45.508;-122.806;2024-01-30T01:10:48;14.38;;;6.63;;
50851;SDS011;43953;45.508;-122.806;2024-01-30T01:11:20;14.15;;;6.10;;
50851;SDS011;43953;45.508;-122.806;2024-01-30T01:11:52;12.38;;;6.25;;
50851;SDS011;43953;45.508;-122.806;2024-01-30T01:12:24;12.60;;;6.30;;
50851;SDS011;43953;45.508;-122.806;2024-01-30T01:12:56;14.27;;;6.43;;
50851;SDS011;43953;45.508;-122.806;2024-01-30T01:13:27;20.35;;;6.57;;
50851;SDS011;43953;45.508;-122.806;2024-01-30T01:13:59;15.63;;;6.25;;
50851;SDS011;43953;45.508;-122.806;2024-01-30T01:14:31;16.48;;;6.07;;
50851;SDS011;43953;45.508;-122.806;2024-01-30T01:15:03;15.70;;;6.70;;
50851;SDS011;43953;45.508;-122.806;2024-01-30T01:15:35;16.17;;;6.22;;
50851;SDS011;43953;45.508;-122.806;2024-01-30T01:16:07;15.13;;;6.22;;
50851;SDS011;43953;45.508;-122.806;2024-01-30T01:16:39;17.55;;;6.72;;
50851;SDS011;43953;45.508;-122.806;2024-01-30T01:17:11;15.25;;;6.65;;
50851;SDS011;43953;45.508;-122.806;2024-01-30T01:17:43;19.17;;;7.07;;
50851;SDS011;43953;45.508;-122.806;2024-01-30T01:18:15;15.43;;;6.40;;
50851;SDS011;43953;45.508;-122.806;2024-01-30T01:18:47;19.45;;;7.00;;
50851;SDS011;43953;45.508;-122.806;2024-01-30T01:19:18;16.85;;;7.10;;
50851;SDS011;43953;45.508;-122.806;2024-01-30T01:19:50;15.25;;;6.22;;
50851;SDS011;43953;45.508;-122.806;2024-01-30T01:20:22;23.27;;;6.85;;
50851;SDS011;43953;45.508;-122.806;2024-01-30T01:20:54;23.10;;;7.47;;
50851;SDS011;43953;45.508;-122.806;2024-01-30T01:21:25;22.23;;;8.23;;
50851;SDS011;43953;45.508;-122.806;2024-01-30T01:21:57;20.40;;;7.25;;
50851;SDS011;43953;45.508;-122.806;2024-01-30T01:22:29;24.05;;;7.05;;
50851;SDS011;43953;45.508;-122.806;2024-01-30T01:23:01;16.50;;;6.93;;
50851;SDS011;43953;45.508;-122.806;2024-01-30T01:23:32;15.75;;;7.15;;
50851;SDS011;43953;45.508;-122.806;2024-01-30T01:24:04;18.30;;;6.63;;
50851;SDS011;43953;45.508;-122.806;2024-01-30T01:24:36;18.85;;;7.30;;
50851;SDS011;43953;45.508;-122.806;2024-01-30T01:25:08;21.42;;;7.13;;
50851;SDS011;43953;45.508;-122.806;2024-01-30T01:25:41;15.65;;;6.72;;
50851;SDS011;43953;45.508;-122.806;2024-01-30T01:26:12;26.77;;;7.30;;
50851;SDS011;43953;45.508;-122.806;2024-01-30T01:26:44;18.48;;;7.30;;
50851;SDS011;43953;45.508;-122.806;2024-01-30T01:27:16;19.52;;;7.53;;
50851;SDS011;43953;45.508;-122.806;2024-01-30T01:27:48;20.10;;;6.65;;
50851;SDS011;43953;45.508;-122.806;2024-01-30T01:28:22;19.70;;;7.47;;
50851;SDS011;43953;45.508;-122.806;2024-01-30T01:28:54;14.65;;;6.90;;
50851;SDS011;43953;45.508;-122.806;2024-01-30T01:29:26;20.20;;;7.05;;
50851;SDS011;43953;45.508;-122.806;2024-01-30T01:30:00;21.35;;;7.35;;
50851;SDS011;43953;45.508;-122.806;2024-01-30T01:30:32;26.02;;;7.60;;
50851;SDS011;43953;45.508;-122.806;2024-01-30T01:31:03;22.85;;;7.47;;
50851;SDS011;43953;45.508;-122.806;2024-01-30T01:31:36;22.23;;;6.70;;
50851;SDS011;43953;45.508;-122.806;2024-01-30T01:32:14;18.08;;;8.05;;
50851;SDS011;43953;45.508;-122.806;2024-01-30T01:32:46;20.27;;;7.25;;
50851;SDS011;43953;45.508;-122.806;2024-01-30T01:33:21;25.67;;;7.63;;
50851;SDS011;43953;45.508;-122.806;2024-01-30T01:33:53;21.05;;;7.57;;
50851;SDS011;43953;45.508;-122.806;2024-01-30T01:34:25;30.00;;;8.10;;
50851;SDS011;43953;45.508;-122.806;2024-01-30T01:34:56;24.48;;;7.55;;
50851;SDS011;43953;45.508;-122.806;2024-01-30T01:35:28;23.92;;;7.45;;
50851;SDS011;43953;45.508;-122.806;2024-01-30T01:36:00;20.70;;;7.07;;
50851;SDS011;43953;45.508;-122.806;2024-01-30T01:36:34;24.05;;;7.22;;
50851;SDS011;43953;45.508;-122.806;2024-01-30T01:37:06;22.30;;;7.20;;
50851;SDS011;43953;45.508;-122.806;2024-01-30T01:37:38;18.55;;;7.05;;
50851;SDS011;43953;45.508;-122.806;2024-01-30T01:38:10;19.00;;;7.38;;
50851;SDS011;43953;45.508;-122.806;2024-01-30T01:38:42;21.35;;;7.90;;
50851;SDS011;43953;45.508;-122.806;2024-01-30T01:39:13;18.88;;;7.07;;
50851;SDS011;43953;45.508;-122.806;2024-01-30T01:39:45;18.30;;;7.25;;
50851;SDS011;43953;45.508;-122.806;2024-01-30T01:40:17;24.70;;;7.22;;
50851;SDS011;43953;45.508;-122.806;2024-01-30T01:40:49;23.00;;;7.55;;
50851;SDS011;43953;45.508;-122.806;2024-01-30T01:41:22;25.88;;;7.65;;
50851;SDS011;43953;45.508;-122.806;2024-01-30T01:41:53;25.77;;;8.07;;
50851;SDS011;43953;45.508;-122.806;2024-01-30T01:42:25;20.35;;;6.78;;
50851;SDS011;43953;45.508;-122.806;2024-01-30T01:42:57;22.42;;;7.10;;
50851;SDS011;43953;45.508;-122.806;2024-01-30T01:43:28;20.38;;;7.05;;
50851;SDS011;43953;45.508;-122.806;2024-01-30T01:44:00;19.30;;;7.70;;
50851;SDS011;43953;45.508;-122.806;2024-01-30T01:44:32;23.08;;;7.43;;
50851;SDS011;43953;45.508;-122.806;2024-01-30T01:45:04;21.52;;;8.00;;
50851;SDS011;43953;45.508;-122.806;2024-01-30T01:45:36;18.50;;;7.30;;
50851;SDS011;43953;45.508;-122.806;2024-01-30T01:46:08;25.75;;;7.60;;
50851;SDS011;43953;45.508;-122.806;2024-01-30T01:46:40;21.15;;;7.28;;
50851;SDS011;43953;45.508;-122.806;2024-01-30T01:47:12;21.67;;;6.68;;
50851;SDS011;43953;45.508;-122.806;2024-01-30T01:47:43;21.45;;;6.55;;
50851;SDS011;43953;45.508;-122.806;2024-01-30T01:48:19;19.20;;;7.22;;
50851;SDS011;43953;45.508;-122.806;2024-01-30T01:48:51;17.63;;;7.22;;
50851;SDS011;43953;45.508;-122.806;2024-01-30T01:49:24;21.45;;;7.38;;
50851;SDS011;43953;45.508;-122.806;2024-01-30T01:49:58;18.38;;;6.63;;
50851;SDS011;43953;45.508;-122.806;2024-01-30T01:50:30;26.05;;;7.10;;
50851;SDS011;43953;45.508;-122.806;2024-01-30T01:51:02;18.95;;;6.93;;
50851;SDS011;43953;45.508;-122.806;2024-01-30T01:51:35;16.98;;;6.63;;
50851;SDS011;43953;45.508;-122.806;2024-01-30T01:52:07;24.75;;;7.20;;
50851;SDS011;43953;45.508;-122.806;2024-01-30T01:52:40;23.95;;;7.35;;
50851;SDS011;43953;45.508;-122.806;2024-01-30T01:53:12;18.38;;;6.80;;
50851;SDS011;43953;45.508;-122.806;2024-01-30T01:53:46;17.48;;;6.47;;
50851;SDS011;43953;45.508;-122.806;2024-01-30T01:54:17;19.08;;;7.18;;
50851;SDS011;43953;45.508;-122.806;2024-01-30T01:54:49;20.27;;;7.18;;
50851;SDS011;43953;45.508;-122.806;2024-01-30T01:55:21;18.95;;;6.80;;
50851;SDS011;43953;45.508;-122.806;2024-01-30T01:55:55;20.23;;;7.28;;
50851;SDS011;43953;45.508;-122.806;2024-01-30T01:56:28;17.13;;;6.55;;
50851;SDS011;43953;45.508;-122.806;2024-01-30T01:57:01;22.05;;;7.40;;
50851;SDS011;43953;45.508;-122.806;2024-01-30T01:57:33;15.93;;;6.90;;
50851;SDS011;43953;45.508;-122.806;2024-01-30T01:58:05;20.80;;;7.82;;
50851;SDS011;43953;45.508;-122.806;2024-01-30T01:58:39;20.50;;;7.45;;
50851;SDS011;43953;45.508;-122.806;2024-01-30T01:59:12;25.65;;;7.50;;
50851;SDS011;43953;45.508;-122.806;2024-01-30T01:59:44;26.02;;;7.13;;
50851;SDS011;43953;45.508;-122.806;2024-01-30T02:00:16;29.27;;;7.32;;
50851;SDS011;43953;45.508;-122.806;2024-01-30T02:00:50;24.17;;;7.80;;
50851;SDS011;43953;45.508;-122.806;2024-01-30T02:01:22;23.42;;;7.18;;
50851;SDS011;43953;45.508;-122.806;2024-01-30T02:01:56;18.67;;;6.97;;
50851;SDS011;43953;45.508;-122.806;2024-01-30T02:02:30;17.25;;;7.43;;
50851;SDS011;43953;45.508;-122.806;2024-01-30T02:03:06;22.75;;;7.47;;
50851;SDS011;43953;45.508;-122.806;2024-01-30T02:03:39;23.33;;;8.48;;
50851;SDS011;43953;45.508;-122.806;2024-01-30T02:04:12;22.35;;;8.32;;
50851;SDS011;43953;45.508;-122.806;2024-01-30T02:04:43;26.52;;;8.55;;
50851;SDS011;43953;45.508;-122.806;2024-01-30T02:05:15;29.40;;;9.75;;
50851;SDS011;43953;45.508;-122.806;2024-01-30T02:05:47;23.75;;;7.90;;
50851;SDS011;43953;45.508;-122.806;2024-01-30T02:06:20;21.77;;;8.68;;
50851;SDS011;43953;45.508;-122.806;2024-01-30T02:06:52;20.88;;;7.93;;
50851;SDS011;43953;45.508;-122.806;2024-01-30T02:07:24;23.50;;;8.30;;
50851;SDS011;43953;45.508;-122.806;2024-01-30T02:07:55;22.23;;;8.98;;
50851;SDS011;43953;45.508;-122.806;2024-01-30T02:08:27;19.25;;;7.97;;
50851;SDS011;43953;45.508;-122.806;2024-01-30T02:08:59;22.30;;;8.90;;
50851;SDS011;43953;45.508;-122.806;2024-01-30T02:09:31;19.77;;;8.65;;
50851;SDS011;43953;45.508;-122.806;2024-01-30T02:10:03;20.55;;;8.50;;
50851;SDS011;43953;45.508;-122.806;2024-01-30T02:10:35;25.13;;;9.02;;
50851;SDS011;43953;45.508;-122.806;2024-01-30T02:11:07;23.73;;;8.88;;
50851;SDS011;43953;45.508;-122.806;2024-01-30T02:11:40;22.58;;;8.20;;
50851;SDS011;43953;45.508;-122.806;2024-01-30T02:12:13;22.33;;;8.15;;
50851;SDS011;43953;45.508;-122.806;2024-01-30T02:12:44;27.42;;;8.60;;
50851;SDS011;43953;45.508;-122.806;2024-01-30T02:13:16;17.08;;;8.15;;
50851;SDS011;43953;45.508;-122.806;2024-01-30T02:13:48;22.60;;;8.45;;
50851;SDS011;43953;45.508;-122.806;2024-01-30T02:14:21;20.35;;;8.73;;
50851;SDS011;43953;45.508;-122.806;2024-01-30T02:14:52;19.90;;;8.68;;
50851;SDS011;43953;45.508;-122.806;2024-01-30T02:15:26;17.67;;;8.40;;
50851;SDS011;43953;45.508;-122.806;2024-01-30T02:15:57;19.83;;;8.02;;
50851;SDS011;43953;45.508;-122.806;2024-01-30T02:16:29;21.67;;;8.45;;
50851;SDS011;43953;45.508;-122.806;2024-01-30T02:17:01;20.75;;;8.60;;
50851;SDS011;43953;45.508;-122.806;2024-01-30T02:17:33;18.33;;;8.13;;
50851;SDS011;43953;45.508;-122.806;2024-01-30T02:18:05;22.60;;;8.35;;
50851;SDS011;43953;45.508;-122.806;2024-01-30T02:18:36;20.42;;;7.97;;
50851;SDS011;43953;45.508;-122.806;2024-01-30T02:19:12;22.73;;;9.00;;
50851;SDS011;43953;45.508;-122.806;2024-01-30T02:19:44;19.27;;;8.63;;
50851;SDS011;43953;45.508;-122.806;2024-01-30T02:20:16;21.65;;;8.65;;
50851;SDS011;43953;45.508;-122.806;2024-01-30T02:20:47;21.60;;;8.77;;
50851;SDS011;43953;45.508;-122.806;2024-01-30T02:21:19;18.48;;;8.13;;
50851;SDS011;43953;45.508;-122.806;2024-01-30T02:21:51;22.88;;;8.93;;
50851;SDS011;43953;45.508;-122.806;2024-01-30T02:22:24;19.00;;;8.82;;
50851;SDS011;43953;45.508;-122.806;2024-01-30T02:22:55;18.02;;;9.48;;
50851;SDS011;43953;45.508;-122.806;2024-01-30T02:23:32;17.20;;;8.45;;
50851;SDS011;43953;45.508;-122.806;2024-01-30T02:24:05;17.92;;;8.50;;
50851;SDS011;43953;45.508;-122.806;2024-01-30T02:24:37;20.15;;;8.38;;
50851;SDS011;43953;45.508;-122.806;2024-01-30T02:25:08;18.13;;;8.30;;
50851;SDS011;43953;45.508;-122.806;2024-01-30T02:25:40;21.02;;;8.60;;
50851;SDS011;43953;45.508;-122.806;2024-01-30T02:26:15;21.92;;;9.13;;
50851;SDS011;43953;45.508;-122.806;2024-01-30T02:26:47;18.15;;;8.60;;
50851;SDS011;43953;45.508;-122.806;2024-01-30T02:27:18;20.77;;;8.65;;
50851;SDS011;43953;45.508;-122.806;2024-01-30T02:27:50;19.05;;;9.35;;
50851;SDS011;43953;45.508;-122.806;2024-01-30T02:28:22;22.25;;;9.63;;
50851;SDS011;43953;45.508;-122.806;2024-01-30T02:28:53;22.73;;;8.85;;
50851;SDS011;43953;45.508;-122.806;2024-01-30T02:29:25;17.83;;;8.10;;
50851;SDS011;43953;45.508;-122.806;2024-01-30T02:29:57;16.35;;;8.23;;
50851;SDS011;43953;45.508;-122.806;2024-01-30T02:30:29;19.67;;;8.55;;
50851;SDS011;43953;45.508;-122.806;2024-01-30T02:31:00;17.80;;;9.02;;
50851;SDS011;43953;45.508;-122.806;2024-01-30T02:31:32;15.02;;;9.00;;
50851;SDS011;43953;45.508;-122.806;2024-01-30T02:32:04;21.80;;;9.88;;
50851;SDS011;43953;45.508;-122.806;2024-01-30T02:32:37;17.58;;;9.50;;
50851;SDS011;43953;45.508;-122.806;2024-01-30T02:33:08;18.83;;;9.85;;
50851;SDS011;43953;45.508;-122.806;2024-01-30T02:33:40;18.60;;;8.85;;
50851;SDS011;43953;45.508;-122.806;2024-01-30T02:34:12;18.83;;;9.50;;
50851;SDS011;43953;45.508;-122.806;2024-01-30T02:34:43;18.70;;;8.77;;
50851;SDS011;43953;45.508;-122.806;2024-01-30T02:35:15;17.05;;;8.57;;
50851;SDS011;43953;45.508;-122.806;2024-01-30T02:35:47;22.40;;;10.90;;
50851;SDS011;43953;45.508;-122.806;2024-01-30T02:36:19;16.73;;;9.50;;
50851;SDS011;43953;45.508;-122.806;2024-01-30T02:36:51;19.20;;;9.77;;
50851;SDS011;43953;45.508;-122.806;2024-01-30T02:37:22;18.75;;;9.57;;
50851;SDS011;43953;45.508;-122.806;2024-01-30T02:37:54;16.02;;;9.63;;
50851;SDS011;43953;45.508;-122.806;2024-01-30T02:38:26;19.25;;;10.68;;
50851;SDS011;43953;45.508;-122.806;2024-01-30T02:38:58;25.95;;;12.05;;
50851;SDS011;43953;45.508;-122.806;2024-01-30T02:39:29;29.45;;;13.52;;
50851;SDS011;43953;45.508;-122.806;2024-01-30T02:40:01;24.02;;;10.77;;
50851;SDS011;43953;45.508;-122.806;2024-01-30T02:40:33;24.85;;;12.27;;
50851;SDS011;43953;45.508;-122.806;2024-01-30T02:41:05;26.95;;;12.80;;
50851;SDS011;43953;45.508;-122.806;2024-01-30T02:41:37;25.63;;;13.35;;
50851;SDS011;43953;45.508;-122.806;2024-01-30T02:42:08;28.45;;;13.55;;
50851;SDS011;43953;45.508;-122.806;2024-01-30T02:42:40;23.48;;;13.32;;
50851;SDS011;43953;45.508;-122.806;2024-01-30T02:43:12;24.17;;;13.35;;
50851;SDS011;43953;45.508;-122.806;2024-01-30T02:43:44;30.42;;;14.52;;
50851;SDS011;43953;45.508;-122.806;2024-01-30T02:44:16;31.15;;;12.90;;
50851;SDS011;43953;45.508;-122.806;2024-01-30T02:44:47;34.13;;;12.98;;
50851;SDS011;43953;45.508;-122.806;2024-01-30T02:45:19;29.52;;;12.38;;
50851;SDS011;43953;45.508;-122.806;2024-01-30T02:45:51;24.20;;;12.48;;
50851;SDS011;43953;45.508;-122.806;2024-01-30T02:46:23;25.20;;;12.90;;
50851;SDS011;43953;45.508;-122.806;2024-01-30T02:46:54;30.27;;;13.40;;
50851;SDS011;43953;45.508;-122.806;2024-01-30T02:47:26;31.73;;;14.90;;
50851;SDS011;43953;45.508;-122.806;2024-01-30T02:47:58;25.60;;;13.40;;
50851;SDS011;43953;45.508;-122.806;2024-01-30T02:48:29;31.35;;;13.68;;
50851;SDS011;43953;45.508;-122.806;2024-01-30T02:49:01;23.73;;;12.25;;
50851;SDS011;43953;45.508;-122.806;2024-01-30T02:49:33;29.02;;;12.65;;
50851;SDS011;43953;45.508;-122.806;2024-01-30T02:50:04;27.13;;;11.88;;
50851;SDS011;43953;45.508;-122.806;2024-01-30T02:50:37;27.42;;;11.93;;
50851;SDS011;43953;45.508;-122.806;2024-01-30T02:51:08;23.55;;;12.32;;
50851;SDS011;43953;45.508;-122.806;2024-01-30T02:51:40;26.92;;;11.98;;
50851;SDS011;43953;45.508;-122.806;2024-01-30T02:52:12;30.10;;;13.48;;
50851;SDS011;43953;45.508;-122.806;2024-01-30T02:52:44;25.55;;;12.82;;
50851;SDS011;43953;45.508;-122.806;2024-01-30T02:53:15;22.67;;;11.60;;
50851;SDS011;43953;45.508;-122.806;2024-01-30T02:53:47;23.23;;;12.02;;
50851;SDS011;43953;45.508;-122.806;2024-01-30T02:54:19;26.55;;;12.98;;
50851;SDS011;43953;45.508;-122.806;2024-01-30T02:54:50;23.85;;;11.25;;
50851;SDS011;43953;45.508;-122.806;2024-01-30T02:55:22;27.08;;;11.73;;
50851;SDS011;43953;45.508;-122.806;2024-01-30T02:55:54;27.35;;;11.13;;
50851;SDS011;43953;45.508;-122.806;2024-01-30T02:56:25;19.23;;;11.57;;
50851;SDS011;43953;45.508;-122.806;2024-01-30T02:56:57;23.35;;;12.80;;
50851;SDS011;43953;45.508;-122.806;2024-01-30T02:57:29;26.52;;;11.80;;
50851;SDS011;43953;45.508;-122.806;2024-01-30T02:58:01;24.48;;;11.38;;
50851;SDS011;43953;45.508;-122.806;2024-01-30T02:58:33;21.73;;;11.40;;
50851;SDS011;43953;45.508;-122.806;2024-01-30T02:59:04;24.25;;;11.90;;
50851;SDS011;43953;45.508;-122.806;2024-01-30T02:59:36;23.23;;;10.90;;
50851;SDS011;43953;45.508;-122.806;2024-01-30T03:00:08;26.67;;;12.30;;
50851;SDS011;43953;45.508;-122.806;2024-01-30T03:00:40;25.00;;;12.10;;
50851;SDS011;43953;45.508;-122.806;2024-01-30T03:01:12;17.58;;;9.98;;
50851;SDS011;43953;45.508;-122.806;2024-01-30T03:01:44;21.95;;;12.05;;
50851;SDS011;43953;45.508;-122.806;2024-01-30T03:02:17;21.20;;;11.18;;
50851;SDS011;43953;45.508;-122.806;2024-01-30T03:02:48;20.27;;;11.05;;